Cartagena de Indias, Colombia

11:55 PM COT en Agosto 25, 2016 (GMT -0500)
Rafael Nunez | | Change Station

Alt 39 ft 10.45 °N, 75.52 °W | Updated 55 minutes ago

Scattered Clouds
Nubes dispersas
82 ° F
Sensación térmica 92 ° F
N
9
Viento Variable Viento desde Norte

Hoy
Alta -- | Baja -- ° F
--% Posibilidad de precipitaciones
Ayer
Alta -- | Baja -- ° F
Precip. -- pul
Presión 29.83 pul
Visibilidad 6.2 Millas
Nubes Muy nublado 1300 ft
Nubes dispersas 20000 ft
Índice de calor 92 ° F
Punto de rocío 79 ° F
Humedad 89%
Precipitaciones 0.00 pul
Espesor de la nieve No disponible.
5:52 AM 6:15 PM
Cuarto menguante, 38% visible
METAR SKCG 260400Z 01008KT 9999 BKN013 SCT200 28/26 A2983
Presión 29.83 pul
Visibilidad 6.2 Millas
Nubes Muy nublado 1300 ft
Nubes dispersas 20000 ft
Índice de calor 92 ° F
Punto de rocío 79 ° F
Humedad 89%
Precipitaciones 0.00 pul
Espesor de la nieve No disponible.
5:52 AM 6:15 PM
Cuarto menguante, 38% visible
METAR SKCG 260400Z 01008KT 9999 BKN013 SCT200 28/26 A2983

10-Day Weather Forecast

No radar image for this location.
×

Almanac

Astronomía

Aug. 25, 2016 Salida Puesta
Hora real
Crepúsculo civil
Crepúsculo náutico
Crepúsculo astronómico
Luna
Horas de luz
Horas de luz
Tomorrow will be .
, % of the Moon is Illuminated

Extremos de hoy

Máximos del país Bajas del país

Community

WunderPhotos

Upload Photos

1,935,056 ¡fotos cargadas!

WunderBlog® & News

Nearby

Calidad del aire

  Calidad del aire Índice AQ Contaminante
Not available.

Grosos de nieve

Estación Profundido Altura

Actividad de terremotos

Ciudad Distance Mag. Tiempo y dato
Magnitud mínima muestra es 2,5.

Temperaturas de aguas costeras

Lugar Temperatura

Stations

Estaciones meteorológicas cercanas

Ubicación de la estación Temp. Vientos helados Punto de rocío Humedad Viento Precip. Alt Actualizado Tipo